ワットタイ国際空港の過去48時間の天気

ワットタイ国際空港 (Vientiane)

現在時刻: 5/26 09:08 +07 (5/26 02:08 UTC) 以下の時間は現地時間です。

過去48時間のMETAR気象情報
時間 風向 風速(m/s) 視程 気温(℃) 湿度(%) 気圧(hPa) 天気現象
26 08:30 北北西 1 8000m 31 66 1006
26 08:00 北北西 1 8000m 30 70 1005
26 07:30 1 7000m 29 79 1005
26 07:00 西北西 1 6000m 27 94 1005
26 06:30 静穏 0 6000m 26 100 1005
26 06:00 南西 1 6000m 25 106 1004
25 21:00 1 4000m 29 84 1006 もや
25 20:30 1 5000m 29 84 1006 もや
25 20:00 2 5000m 29 84 1005 もや
25 19:30 南東 2 5000m 28 89 1004 もや
25 19:00 南南東 2 6000m 29 84 1004
25 18:30 南東 2 7000m 30 79 1004
25 18:00 1 8000m 33 67 1003
25 17:30 西 1 8000m 33 56 1003
25 17:00 西北西 2 8000m 34 53 1003
25 16:30 西北西 1 8000m 35 50 1003
25 16:00 西 3 8000m 35 50 1004
25 15:00 西 3 8000m 34 56 1004
25 14:30 西北西 3 8000m 34 56 1005
25 14:00 西 2 8000m 34 56 1005
25 13:30 西北西 3 8000m 33 67 1006
25 13:00 西北西 2 8000m 33 67 1006
25 12:30 4 8000m 32 71 1006
25 12:00 南南西 2 8000m 32 71 1007
25 11:00 北西 1 8000m 32 71 1008
25 10:30 西南西 1 8000m 30 84 1009
25 10:00 静穏 0 8000m 30 84 1009
25 09:30 北北東 1 8000m 29 79 1009
25 09:00 北北西 1 7000m 28 84 1009
25 08:30 西北西 1 7000m 27 100 1009
25 08:00 西 1 7000m 26 100 1009
25 07:30 静穏 0 5000m 26 100 1009 もや
25 07:00 静穏 0 5000m 26 100 1008 もや
25 06:30 1 5000m 25 100 1008 もや
25 06:00 北東 1 5000m 25 100 1007 もや
24 19:00 南西 1 5000m 25 100 1007 もや
24 18:30 静穏 0 6000m 26 100 1006
24 18:00 1 6000m 26 94 1006
24 16:30 南南東 2 7000m 27 89 1005
24 16:00 3 7000m 27 89 1005
24 15:30 5 7000m 27 84 1005
24 15:00 3 10km以上 31 75 1005
24 14:30 南南東 1 8000m 32 71 1005
24 14:00 東南東 2 8000m 31 75 1007
24 13:30 東南東 2 8000m 31 75 1006
24 13:00 東南東 2 8000m 31 75 1007
24 12:30 南東 1 7000m 30 79 1007
24 12:00 1 8000m 31 79 1007
24 11:30 南南東 2 7000m 31 79 1007
24 11:00 東南東 1 7000m 30 79 1007
24 10:00 1 7000m 28 89 1008
24 09:30 東北東 1 7000m 28 89 1008
VLVT 260130Z 34002KT 8000 SCT200 31/24 Q1006 NOSIG
VLVT 260100Z 34002KT 8000 SCT200 30/24 Q1005 NOSIG
VLVT 260030Z 36002KT 7000 SCT200 29/25 Q1005 NOSIG
VLVT 260000Z 30002KT 6000 SCT200 27/26 Q1005 NOSIG
VLVT 252330Z 00000KT 6000 SCT200 26/26 Q1005 NOSIG
VLVT 252300Z 22002KT 6000 SCT200 25/26 Q1004 NOSIG
VLVT 251400Z 18002KT 4000 BR FEW016 FEW200 29/26 Q1006 NOSIG
VLVT 251330Z 18002KT 5000 BR FEW016 FEW200 29/26 Q1006 NOSIG
VLVT 251300Z 18004KT 5000 BR FEW016 FEW200 29/26 Q1005 NOSIG
VLVT 251230Z 14004KT 5000 BR FEW016 FEW200 28/26 Q1004 NOSIG
VLVT 251200Z 16004KT 6000 FEW016 FEW200 29/26 Q1004 NOSIG
VLVT 251130Z 14004KT 7000 FEW016 SCT200 30/26 Q1004 NOSIG
VLVT 251100Z 18002KT 8000 FEW016 SCT200 33/26 Q1003 NOSIG
VLVT 251030Z 27002KT 8000 FEW016 SCT200 33/23 Q1003 NOSIG
VLVT 251000Z 30004KT 8000 FEW016 SCT200 34/23 Q1003 NOSIG
VLVT 250930Z 30002KT 8000 SCT016 SCT040 35/23 Q1003 NOSIG
VLVT 250900Z 27006KT 8000 SCT016 SCT050 35/23 Q1004 NOSIG
VLVT 250800Z 27006KT 8000 SCT016 FEW040 34/24 Q1004 NOSIG
VLVT 250730Z 30006KT 8000 SCT016 FEW040 34/24 Q1005 NOSIG
VLVT 250700Z 27004KT 8000 SCT016 FEW040 34/24 Q1005 NOSIG
VLVT 250630Z 30006KT 8000 BKN016 33/26 Q1006 NOSIG
VLVT 250600Z 30004KT 8000 BKN016 33/26 Q1006 NOSIG
VLVT 250530Z 18008KT 8000 BKN016 FEW040 32/26 Q1006 NOSIG
VLVT 250500Z 20004KT 8000 SCT016 FEW040 32/26 Q1007 NOSIG
VLVT 250400Z 32002KT 8000 SCT016 FEW040 32/26 Q1008 NOSIG
VLVT 250330Z 24002KT 8000 SCT016 BKN040 30/27 Q1009 NOSIG
VLVT 250300Z 00000KT 8000 SCT016 BKN040 30/27 Q1009 NOSIG
VLVT 250230Z 02002KT 8000 BKN040 BKN083 29/25 Q1009 NOSIG
VLVT 250200Z 34002KT 7000 BKN040 BKN083 28/25 Q1009 NOSIG
VLVT 250130Z 30002KT 7000 BKN013 BKN083 27/27 Q1009 NOSIG
VLVT 250100Z 27002KT 7000 BKN013 BKN083 26/26 Q1009 NOSIG
VLVT 250030Z 00000KT 5000 BR SCT010 BKN083 26/26 Q1009 NOSIG
VLVT 250000Z 00000KT 5000 BR BKN040 BKN083 26/26 Q1008 NOSIG
VLVT 242330Z 36002KT 5000 BR BKN040 BKN083 25/25 Q1008 NOSIG
VLVT 242300Z 04002KT 5000 BR BKN040 BKN083 25/25 Q1007 NOSIG
VLVT 241200Z 22002KT 5000 BR BKN050 25/25 Q1007 NOSIG
VLVT 241130Z 00000KT 6000 SCT016 BKN050 26/26 Q1006 NOSIG
VLVT 241100Z 36002KT 6000 BKN040 BKN083 26/25 Q1006 NOSIG
VLVT 240930Z 16004KT 7000 TS SCT016 FEW023CB BKN050 27/25 Q1005 CB/W.N NOSIG
VLVT 240900Z 18006KT 7000 BKN016 BKN040 27/25 Q1005 NOSIG
VLVT 240830Z 18010KT 7000 BKN013 BKN040 27/24 Q1005 NOSIG
VLVT 240800Z 18006KT 9999 SCT016 SCT200 31/26 Q1005 NOSIG
VLVT 240730Z 16002KT 8000 SCT016 BKN050 32/26 Q1005 NOSIG
VLVT 240700Z 12004KT 8000 SCT016 BKN050 31/26 Q1007 NOSIG
VLVT 240630Z 12004KT 8000 SCT016 BKN050 31/26 Q1006 NOSIG
VLVT 240600Z 12004KT 8000 SCT016 BKN050 31/26 Q1007 NOSIG
VLVT 240530Z 14002KT 7000 BKN016 BKN050 30/26 Q1007 NOSIG
VLVT 240500Z 18002KT 8000 BKN016 BKN040 31/27 Q1007 NOSIG
VLVT 240430Z 16004KT 7000 BKN016 BKN050 31/27 Q1007 NOSIG
VLVT 240400Z 12002KT 7000 BKN016 BKN050 30/26 Q1007 NOSIG
VLVT 240300Z 18002KT 7000 SCT016 BKN050 28/26 Q1008 NOSIG
VLVT 240230Z 06002KT 7000 BKN016 BKN050 28/26 Q1008 NOSIG